SKCC/CUC METAR and TAF weather

Enter ICAO airport designator
Station Type Date Time Source
SKCC METAR 2021/07/30 23:00 UTC NOAA

SKCC 302300Z 16018KT 9999 VCSH SCT020TCU SCT090 31/17 Q1012 RMK TCU N A2990


Station Type Date Time Source
SKCC Decoded METAR 2021/07/30 23:00 UTC NOAA

Cucuta / Camilo Daza, Colombia (SKCC) 07-56N 072-31W 317M
Jul 30, 2021 - 07:00 PM EDT / 2021.07.30 2300 UTC
Wind: from the SSE (160 degrees) at 21 MPH (18 KT):0
Visibility: greater than 7 mile(s):0
Sky conditions: partly cloudy
Weather: showers in the vicinity; Towering cumulus clouds observed
Temperature: 87 F (31 C)
Dew Point: 62 F (17 C)
Relative Humidity: 43%
Pressure (altimeter): 29.88 in. Hg (1012 hPa)
ob: SKCC 302300Z 16018KT 9999 VCSH SCT020TCU SCT090 31/17 Q1012 RMK TCU N A2990
cycle: 23

Station Type Date Time Source
SKCC TAF 2021/07/30 18:36 UTC NOAA

TAF SKCC 301630Z 3018/3118 17016KT 9999 SCT023 TX33/3019Z TN23/3110Z

Example: see airport list